createdAt,value
2023-01-18T00:02:25.693Z,0.00
2023-01-18T00:17:25.632Z,0.00
2023-01-18T00:32:25.686Z,0.00
2023-01-18T00:47:25.613Z,0.00
2023-01-18T01:02:25.861Z,0.00
2023-01-18T01:17:26.005Z,0.00
2023-01-18T01:32:25.774Z,0.00
2023-01-18T01:47:25.790Z,0.00
2023-01-18T02:02:25.949Z,0.00
2023-01-18T02:17:25.949Z,0.00
2023-01-18T02:32:25.881Z,0.00
2023-01-18T02:47:25.921Z,0.00
2023-01-18T03:02:25.897Z,0.00
2023-01-18T03:17:25.971Z,0.00
2023-01-18T03:32:26.066Z,0.05
2023-01-18T03:47:26.150Z,0.03
2023-01-18T04:02:26.393Z,0.00
2023-01-18T04:17:26.360Z,0.09
2023-01-18T04:32:26.342Z,0.01
2023-01-18T04:47:26.336Z,0.04
2023-01-18T05:02:26.155Z,0.00
2023-01-18T05:17:26.351Z,0.00
2023-01-18T05:32:26.455Z,0.00
2023-01-18T05:47:26.679Z,0.00
2023-01-18T06:02:26.207Z,0.34
2023-01-18T06:17:26.395Z,1.16
2023-01-18T06:32:26.476Z,0.18
2023-01-18T06:47:26.481Z,0.19
2023-01-18T07:02:26.595Z,0.37
2023-01-18T07:17:26.593Z,0.24
2023-01-18T07:32:26.564Z,0.04
2023-01-18T07:47:26.705Z,0.00
2023-01-18T08:02:26.667Z,0.00
2023-01-18T08:17:26.704Z,0.01
2023-01-18T08:32:27.276Z,0.00
2023-01-18T08:47:26.710Z,0.06
2023-01-18T09:02:26.744Z,0.00
2023-01-18T09:17:27.922Z,0.31
2023-01-18T09:32:26.926Z,0.62
2023-01-18T09:47:26.850Z,1.03
2023-01-18T10:02:27.143Z,1.01
2023-01-18T10:17:26.974Z,1.22
2023-01-18T10:32:26.970Z,1.10
2023-01-18T10:47:26.946Z,1.01
2023-01-18T11:02:26.964Z,1.66
2023-01-18T11:17:26.913Z,2.02
2023-01-18T11:32:27.069Z,1.78
2023-01-18T11:47:27.066Z,1.78
2023-01-18T12:02:27.498Z,1.81
2023-01-18T12:17:27.191Z,1.37
2023-01-18T12:32:27.211Z,2.30
2023-01-18T12:47:27.203Z,2.66
2023-01-18T13:02:27.243Z,2.10
2023-01-18T13:17:27.373Z,1.87
2023-01-18T13:32:27.300Z,2.16
2023-01-18T13:47:27.367Z,1.79
2023-01-18T14:02:27.270Z,2.11
2023-01-18T14:17:27.451Z,4.26
2023-01-18T14:32:27.422Z,4.08
2023-01-18T14:47:27.439Z,4.24
2023-01-18T15:02:27.758Z,3.00
2023-01-18T15:17:28.499Z,3.01
2023-01-18T15:32:27.413Z,1.90
2023-01-18T15:47:27.632Z,1.49
2023-01-18T16:02:27.555Z,2.09
2023-01-18T16:17:27.787Z,1.61
2023-01-18T16:32:27.801Z,1.80
2023-01-18T16:47:27.901Z,2.06
2023-01-18T17:02:27.751Z,1.67
2023-01-18T17:17:27.772Z,1.98
2023-01-18T17:47:27.730Z,2.07
2023-01-18T18:02:28.169Z,2.14
2023-01-18T18:17:27.914Z,2.55
2023-01-18T18:32:28.954Z,2.47
2023-01-18T18:47:27.923Z,2.01
2023-01-18T19:02:27.987Z,1.70
2023-01-18T19:17:31.118Z,1.85
2023-01-18T19:32:28.066Z,1.97
2023-01-18T19:47:28.079Z,2.03
2023-01-18T20:02:28.187Z,2.28
2023-01-18T20:17:28.045Z,2.08
2023-01-18T20:32:28.183Z,2.09
2023-01-18T20:47:28.117Z,2.00
2023-01-18T21:02:28.445Z,2.15
2023-01-18T21:17:29.401Z,2.07
2023-01-18T21:32:28.311Z,1.99
2023-01-18T21:47:28.369Z,1.84
2023-01-18T22:02:28.478Z,2.17
2023-01-18T22:17:28.404Z,2.28
2023-01-18T22:32:28.375Z,2.29
2023-01-18T22:47:28.414Z,2.29
2023-01-18T23:02:28.445Z,2.36
2023-01-18T23:17:28.346Z,1.97
2023-01-18T23:32:28.727Z,1.69
2023-01-18T23:47:28.509Z,2.04
